sensor_id;sensor_type;location;lat;lon;timestamp;P1;durP1;ratioP1;P2;durP2;ratioP2
2313;SDS011;42279;51.388;7.000;2022-11-14T00:01:05;12.20;;;10.70;;
2313;SDS011;42279;51.388;7.000;2022-11-14T00:03:31;10.20;;;9.20;;
2313;SDS011;42279;51.388;7.000;2022-11-14T00:05:57;9.97;;;9.07;;
2313;SDS011;42279;51.388;7.000;2022-11-14T00:08:23;9.70;;;8.60;;
2313;SDS011;42279;51.388;7.000;2022-11-14T00:10:50;9.27;;;8.57;;
2313;SDS011;42279;51.388;7.000;2022-11-14T00:13:16;8.60;;;8.00;;
2313;SDS011;42279;51.388;7.000;2022-11-14T00:15:43;9.70;;;8.83;;
2313;SDS011;42279;51.388;7.000;2022-11-14T00:18:09;10.17;;;9.30;;
2313;SDS011;42279;51.388;7.000;2022-11-14T00:20:35;8.87;;;8.10;;
2313;SDS011;42279;51.388;7.000;2022-11-14T00:23:01;10.57;;;9.63;;
2313;SDS011;42279;51.388;7.000;2022-11-14T00:25:27;8.90;;;8.20;;
2313;SDS011;42279;51.388;7.000;2022-11-14T00:27:55;8.70;;;8.03;;
2313;SDS011;42279;51.388;7.000;2022-11-14T00:30:22;9.13;;;8.40;;
2313;SDS011;42279;51.388;7.000;2022-11-14T00:32:48;8.73;;;8.03;;
2313;SDS011;42279;51.388;7.000;2022-11-14T00:35:14;9.20;;;8.40;;
2313;SDS011;42279;51.388;7.000;2022-11-14T00:37:41;9.43;;;8.70;;
2313;SDS011;42279;51.388;7.000;2022-11-14T00:40:07;8.70;;;7.95;;
2313;SDS011;42279;51.388;7.000;2022-11-14T00:42:33;8.90;;;8.10;;
2313;SDS011;42279;51.388;7.000;2022-11-14T00:44:59;9.77;;;8.97;;
2313;SDS011;42279;51.388;7.000;2022-11-14T00:47:25;8.57;;;7.83;;
2313;SDS011;42279;51.388;7.000;2022-11-14T00:49:51;9.20;;;8.30;;
2313;SDS011;42279;51.388;7.000;2022-11-14T00:52:17;10.27;;;9.43;;
2313;SDS011;42279;51.388;7.000;2022-11-14T00:54:43;10.20;;;9.30;;
2313;SDS011;42279;51.388;7.000;2022-11-14T00:57:09;11.40;;;9.20;;
2313;SDS011;42279;51.388;7.000;2022-11-14T00:59:35;10.50;;;9.60;;
2313;SDS011;42279;51.388;7.000;2022-11-14T01:02:01;10.10;;;9.10;;
2313;SDS011;42279;51.388;7.000;2022-11-14T01:04:27;11.43;;;10.30;;
2313;SDS011;42279;51.388;7.000;2022-11-14T01:06:53;11.07;;;9.97;;
2313;SDS011;42279;51.388;7.000;2022-11-14T01:09:19;10.10;;;9.20;;
2313;SDS011;42279;51.388;7.000;2022-11-14T01:11:45;10.20;;;9.13;;
2313;SDS011;42279;51.388;7.000;2022-11-14T01:14:11;10.40;;;9.40;;
2313;SDS011;42279;51.388;7.000;2022-11-14T01:16:37;10.57;;;9.67;;
2313;SDS011;42279;51.388;7.000;2022-11-14T01:19:03;10.07;;;9.00;;
2313;SDS011;42279;51.388;7.000;2022-11-14T01:21:29;10.60;;;9.47;;
2313;SDS011;42279;51.388;7.000;2022-11-14T01:23:55;11.67;;;10.17;;
2313;SDS011;42279;51.388;7.000;2022-11-14T01:26:21;11.00;;;10.00;;
2313;SDS011;42279;51.388;7.000;2022-11-14T01:28:47;10.53;;;9.53;;
2313;SDS011;42279;51.388;7.000;2022-11-14T01:31:14;10.37;;;9.30;;
2313;SDS011;42279;51.388;7.000;2022-11-14T01:33:41;9.73;;;8.93;;
2313;SDS011;42279;51.388;7.000;2022-11-14T01:36:07;11.27;;;10.07;;
2313;SDS011;42279;51.388;7.000;2022-11-14T01:38:33;9.07;;;8.27;;
2313;SDS011;42279;51.388;7.000;2022-11-14T01:41:00;11.20;;;10.10;;
2313;SDS011;42279;51.388;7.000;2022-11-14T01:43:27;9.30;;;8.60;;
2313;SDS011;42279;51.388;7.000;2022-11-14T01:45:58;9.70;;;8.80;;
2313;SDS011;42279;51.388;7.000;2022-11-14T01:51:30;10.63;;;9.70;;
2313;SDS011;42279;51.388;7.000;2022-11-14T01:53:50;10.93;;;9.80;;
2313;SDS011;42279;51.388;7.000;2022-11-14T01:56:19;12.90;;;9.53;;
2313;SDS011;42279;51.388;7.000;2022-11-14T01:59:22;11.68;;;10.18;;
2313;SDS011;42279;51.388;7.000;2022-11-14T02:01:49;11.07;;;10.00;;
2313;SDS011;42279;51.388;7.000;2022-11-14T02:04:29;11.37;;;10.27;;
2313;SDS011;42279;51.388;7.000;2022-11-14T02:06:57;11.10;;;9.90;;
2313;SDS011;42279;51.388;7.000;2022-11-14T02:09:24;15.77;;;10.05;;
2313;SDS011;42279;51.388;7.000;2022-11-14T02:11:51;10.43;;;9.50;;
2313;SDS011;42279;51.388;7.000;2022-11-14T02:14:18;9.90;;;9.03;;
2313;SDS011;42279;51.388;7.000;2022-11-14T02:16:44;10.37;;;9.43;;
2313;SDS011;42279;51.388;7.000;2022-11-14T02:19:11;9.80;;;8.93;;
2313;SDS011;42279;51.388;7.000;2022-11-14T02:21:38;11.32;;;9.45;;
2313;SDS011;42279;51.388;7.000;2022-11-14T02:24:07;11.17;;;10.20;;
2313;SDS011;42279;51.388;7.000;2022-11-14T02:26:34;11.07;;;9.97;;
2313;SDS011;42279;51.388;7.000;2022-11-14T02:29:00;12.73;;;10.17;;
2313;SDS011;42279;51.388;7.000;2022-11-14T02:31:26;10.47;;;9.37;;
2313;SDS011;42279;51.388;7.000;2022-11-14T02:33:52;13.77;;;9.30;;
2313;SDS011;42279;51.388;7.000;2022-11-14T02:36:18;9.37;;;7.83;;
2313;SDS011;42279;51.388;7.000;2022-11-14T02:38:44;10.60;;;9.67;;
2313;SDS011;42279;51.388;7.000;2022-11-14T02:41:09;10.50;;;9.63;;
2313;SDS011;42279;51.388;7.000;2022-11-14T02:43:39;9.73;;;8.93;;
2313;SDS011;42279;51.388;7.000;2022-11-14T02:46:04;10.13;;;9.23;;
2313;SDS011;42279;51.388;7.000;2022-11-14T02:48:30;11.07;;;10.07;;
2313;SDS011;42279;51.388;7.000;2022-11-14T02:50:56;11.53;;;9.77;;
2313;SDS011;42279;51.388;7.000;2022-11-14T02:53:22;10.50;;;9.50;;
2313;SDS011;42279;51.388;7.000;2022-11-14T02:55:48;11.17;;;10.07;;
2313;SDS011;42279;51.388;7.000;2022-11-14T02:58:14;13.20;;;10.80;;
2313;SDS011;42279;51.388;7.000;2022-11-14T03:00:40;11.27;;;9.67;;
2313;SDS011;42279;51.388;7.000;2022-11-14T03:03:06;11.73;;;10.60;;
2313;SDS011;42279;51.388;7.000;2022-11-14T03:05:32;11.37;;;10.23;;
2313;SDS011;42279;51.388;7.000;2022-11-14T03:07:58;11.00;;;10.00;;
2313;SDS011;42279;51.388;7.000;2022-11-14T03:10:24;10.97;;;10.07;;
2313;SDS011;42279;51.388;7.000;2022-11-14T03:12:54;11.02;;;9.68;;
2313;SDS011;42279;51.388;7.000;2022-11-14T03:15:20;11.50;;;9.70;;
2313;SDS011;42279;51.388;7.000;2022-11-14T03:17:47;11.17;;;10.27;;
2313;SDS011;42279;51.388;7.000;2022-11-14T03:20:13;12.13;;;10.93;;
2313;SDS011;42279;51.388;7.000;2022-11-14T03:22:39;9.60;;;8.73;;
2313;SDS011;42279;51.388;7.000;2022-11-14T03:25:05;10.17;;;9.20;;
2313;SDS011;42279;51.388;7.000;2022-11-14T03:27:31;10.87;;;9.77;;
2313;SDS011;42279;51.388;7.000;2022-11-14T03:29:57;10.43;;;9.43;;
2313;SDS011;42279;51.388;7.000;2022-11-14T03:32:23;11.05;;;10.00;;
2313;SDS011;42279;51.388;7.000;2022-11-14T03:34:49;13.33;;;9.90;;
2313;SDS011;42279;51.388;7.000;2022-11-14T03:37:15;10.20;;;9.20;;
2313;SDS011;42279;51.388;7.000;2022-11-14T03:39:41;10.43;;;9.53;;
2313;SDS011;42279;51.388;7.000;2022-11-14T03:42:07;11.00;;;10.20;;
2313;SDS011;42279;51.388;7.000;2022-11-14T03:44:33;10.13;;;9.30;;
2313;SDS011;42279;51.388;7.000;2022-11-14T03:46:59;9.67;;;8.90;;
2313;SDS011;42279;51.388;7.000;2022-11-14T03:49:25;9.17;;;8.47;;
2313;SDS011;42279;51.388;7.000;2022-11-14T03:51:51;10.10;;;9.10;;
2313;SDS011;42279;51.388;7.000;2022-11-14T03:54:17;10.10;;;8.93;;
2313;SDS011;42279;51.388;7.000;2022-11-14T03:56:43;10.87;;;9.80;;
2313;SDS011;42279;51.388;7.000;2022-11-14T03:59:09;9.90;;;9.07;;
2313;SDS011;42279;51.388;7.000;2022-11-14T04:01:38;10.00;;;9.07;;
2313;SDS011;42279;51.388;7.000;2022-11-14T04:04:04;9.47;;;8.60;;
2313;SDS011;42279;51.388;7.000;2022-11-14T04:06:30;9.70;;;8.83;;
2313;SDS011;42279;51.388;7.000;2022-11-14T04:08:56;10.23;;;9.43;;
2313;SDS011;42279;51.388;7.000;2022-11-14T04:11:22;10.83;;;9.23;;
2313;SDS011;42279;51.388;7.000;2022-11-14T04:13:48;10.17;;;9.20;;
2313;SDS011;42279;51.388;7.000;2022-11-14T04:16:14;9.57;;;8.77;;
2313;SDS011;42279;51.388;7.000;2022-11-14T04:18:40;8.43;;;7.63;;
2313;SDS011;42279;51.388;7.000;2022-11-14T04:21:06;9.70;;;8.90;;
2313;SDS011;42279;51.388;7.000;2022-11-14T04:23:32;10.10;;;8.40;;
2313;SDS011;42279;51.388;7.000;2022-11-14T04:25:58;10.45;;;9.50;;
2313;SDS011;42279;51.388;7.000;2022-11-14T04:28:27;9.63;;;8.80;;
2313;SDS011;42279;51.388;7.000;2022-11-14T04:30:53;10.13;;;9.20;;
2313;SDS011;42279;51.388;7.000;2022-11-14T04:33:19;13.00;;;10.03;;
2313;SDS011;42279;51.388;7.000;2022-11-14T04:35:45;12.27;;;9.40;;
2313;SDS011;42279;51.388;7.000;2022-11-14T04:38:10;9.70;;;8.80;;
2313;SDS011;42279;51.388;7.000;2022-11-14T04:40:36;12.17;;;10.00;;
2313;SDS011;42279;51.388;7.000;2022-11-14T04:43:02;10.23;;;9.17;;
2313;SDS011;42279;51.388;7.000;2022-11-14T04:45:28;11.60;;;9.87;;
2313;SDS011;42279;51.388;7.000;2022-11-14T04:47:54;10.40;;;9.33;;
2313;SDS011;42279;51.388;7.000;2022-11-14T04:50:20;10.27;;;9.47;;
2313;SDS011;42279;51.388;7.000;2022-11-14T04:52:49;11.33;;;9.37;;
2313;SDS011;42279;51.388;7.000;2022-11-14T04:55:15;10.70;;;9.70;;
2313;SDS011;42279;51.388;7.000;2022-11-14T04:57:42;9.38;;;8.60;;
2313;SDS011;42279;51.388;7.000;2022-11-14T05:00:08;10.63;;;9.27;;
2313;SDS011;42279;51.388;7.000;2022-11-14T05:02:34;11.27;;;10.07;;
2313;SDS011;42279;51.388;7.000;2022-11-14T05:05:00;9.80;;;8.10;;
2313;SDS011;42279;51.388;7.000;2022-11-14T05:07:26;12.10;;;10.65;;
2313;SDS011;42279;51.388;7.000;2022-11-14T05:09:52;11.83;;;10.57;;
2313;SDS011;42279;51.388;7.000;2022-11-14T05:12:18;10.00;;;9.10;;
2313;SDS011;42279;51.388;7.000;2022-11-14T05:14:44;11.03;;;9.90;;
2313;SDS011;42279;51.388;7.000;2022-11-14T05:17:10;12.80;;;11.07;;
2313;SDS011;42279;51.388;7.000;2022-11-14T05:19:36;10.18;;;9.27;;
2313;SDS011;42279;51.388;7.000;2022-11-14T05:22:02;10.37;;;9.50;;
2313;SDS011;42279;51.388;7.000;2022-11-14T05:24:28;10.83;;;9.83;;
2313;SDS011;42279;51.388;7.000;2022-11-14T05:26:54;9.23;;;7.80;;
2313;SDS011;42279;51.388;7.000;2022-11-14T05:29:20;11.40;;;10.27;;
2313;SDS011;42279;51.388;7.000;2022-11-14T05:31:46;10.60;;;9.60;;
2313;SDS011;42279;51.388;7.000;2022-11-14T05:34:12;10.20;;;9.27;;
2313;SDS011;42279;51.388;7.000;2022-11-14T05:36:38;12.50;;;11.13;;
2313;SDS011;42279;51.388;7.000;2022-11-14T05:39:04;11.90;;;10.70;;
2313;SDS011;42279;51.388;7.000;2022-11-14T05:41:30;19.70;;;10.70;;
2313;SDS011;42279;51.388;7.000;2022-11-14T05:43:56;12.40;;;11.10;;
2313;SDS011;42279;51.388;7.000;2022-11-14T05:46:22;19.33;;;13.90;;
2313;SDS011;42279;51.388;7.000;2022-11-14T05:48:48;17.30;;;13.60;;
2313;SDS011;42279;51.388;7.000;2022-11-14T05:51:14;17.07;;;14.50;;
2313;SDS011;42279;51.388;7.000;2022-11-14T05:53:40;18.17;;;13.83;;
2313;SDS011;42279;51.388;7.000;2022-11-14T05:56:07;19.17;;;13.93;;
2313;SDS011;42279;51.388;7.000;2022-11-14T05:58:34;12.13;;;10.73;;
2313;SDS011;42279;51.388;7.000;2022-11-14T06:01:04;17.97;;;12.43;;
2313;SDS011;42279;51.388;7.000;2022-11-14T06:03:34;16.05;;;11.75;;
2313;SDS011;42279;51.388;7.000;2022-11-14T06:06:01;12.43;;;11.03;;
2313;SDS011;42279;51.388;7.000;2022-11-14T06:08:27;14.47;;;12.47;;
2313;SDS011;42279;51.388;7.000;2022-11-14T06:10:53;14.43;;;12.55;;
2313;SDS011;42279;51.388;7.000;2022-11-14T06:13:19;16.00;;;11.53;;
2313;SDS011;42279;51.388;7.000;2022-11-14T06:15:48;13.00;;;11.80;;
2313;SDS011;42279;51.388;7.000;2022-11-14T06:18:14;15.23;;;13.13;;
2313;SDS011;42279;51.388;7.000;2022-11-14T06:20:40;13.37;;;11.53;;
2313;SDS011;42279;51.388;7.000;2022-11-14T06:23:06;13.40;;;12.07;;
2313;SDS011;42279;51.388;7.000;2022-11-14T06:25:32;13.73;;;12.17;;
2313;SDS011;42279;51.388;7.000;2022-11-14T06:27:58;10.80;;;9.85;;
2313;SDS011;42279;51.388;7.000;2022-11-14T06:30:24;12.20;;;10.87;;
2313;SDS011;42279;51.388;7.000;2022-11-14T06:32:55;12.40;;;11.20;;
2313;SDS011;42279;51.388;7.000;2022-11-14T06:35:21;11.40;;;10.33;;
2313;SDS011;42279;51.388;7.000;2022-11-14T06:37:47;11.67;;;10.47;;
2313;SDS011;42279;51.388;7.000;2022-11-14T06:40:13;13.48;;;10.35;;
2313;SDS011;42279;51.388;7.000;2022-11-14T06:42:42;12.25;;;11.00;;
2313;SDS011;42279;51.388;7.000;2022-11-14T06:45:08;11.60;;;10.43;;
2313;SDS011;42279;51.388;7.000;2022-11-14T06:47:34;10.43;;;9.43;;
2313;SDS011;42279;51.388;7.000;2022-11-14T06:50:03;11.23;;;10.07;;
2313;SDS011;42279;51.388;7.000;2022-11-14T06:52:32;12.67;;;11.47;;
2313;SDS011;42279;51.388;7.000;2022-11-14T06:54:58;12.40;;;10.43;;
2313;SDS011;42279;51.388;7.000;2022-11-14T06:57:24;14.02;;;10.55;;
2313;SDS011;42279;51.388;7.000;2022-11-14T06:59:50;11.93;;;10.00;;
2313;SDS011;42279;51.388;7.000;2022-11-14T07:02:19;11.47;;;9.50;;
2313;SDS011;42279;51.388;7.000;2022-11-14T07:04:45;16.90;;;9.80;;
2313;SDS011;42279;51.388;7.000;2022-11-14T07:07:11;9.97;;;8.97;;
2313;SDS011;42279;51.388;7.000;2022-11-14T07:09:37;9.90;;;8.97;;
2313;SDS011;42279;51.388;7.000;2022-11-14T07:12:03;11.67;;;10.23;;
2313;SDS011;42279;51.388;7.000;2022-11-14T07:14:29;11.77;;;10.60;;
2313;SDS011;42279;51.388;7.000;2022-11-14T07:16:56;11.90;;;10.27;;
2313;SDS011;42279;51.388;7.000;2022-11-14T07:19:22;12.53;;;10.50;;
2313;SDS011;42279;51.388;7.000;2022-11-14T07:21:48;11.03;;;9.97;;
2313;SDS011;42279;51.388;7.000;2022-11-14T07:24:14;10.30;;;8.63;;
2313;SDS011;42279;51.388;7.000;2022-11-14T07:26:40;12.03;;;10.93;;
2313;SDS011;42279;51.388;7.000;2022-11-14T07:29:06;9.90;;;8.37;;
2313;SDS011;42279;51.388;7.000;2022-11-14T07:31:32;11.27;;;9.87;;
2313;SDS011;42279;51.388;7.000;2022-11-14T07:33:58;10.48;;;9.57;;
2313;SDS011;42279;51.388;7.000;2022-11-14T07:36:24;11.50;;;10.30;;
2313;SDS011;42279;51.388;7.000;2022-11-14T07:38:50;11.50;;;10.30;;
2313;SDS011;42279;51.388;7.000;2022-11-14T07:41:16;13.27;;;10.97;;
2313;SDS011;42279;51.388;7.000;2022-11-14T07:43:42;10.20;;;9.27;;
2313;SDS011;42279;51.388;7.000;2022-11-14T07:46:12;11.07;;;9.47;;
2313;SDS011;42279;51.388;7.000;2022-11-14T07:48:39;12.27;;;9.70;;
2313;SDS011;42279;51.388;7.000;2022-11-14T07:51:05;11.80;;;10.00;;
2313;SDS011;42279;51.388;7.000;2022-11-14T07:53:32;10.83;;;9.77;;
2313;SDS011;42279;51.388;7.000;2022-11-14T07:56:03;11.07;;;9.10;;
2313;SDS011;42279;51.388;7.000;2022-11-14T07:58:29;12.03;;;10.90;;
2313;SDS011;42279;51.388;7.000;2022-11-14T08:00:58;11.20;;;10.20;;
2313;SDS011;42279;51.388;7.000;2022-11-14T08:03:24;9.57;;;8.77;;
2313;SDS011;42279;51.388;7.000;2022-11-14T08:05:50;10.45;;;9.50;;
2313;SDS011;42279;51.388;7.000;2022-11-14T08:08:16;10.30;;;9.40;;
2313;SDS011;42279;51.388;7.000;2022-11-14T08:10:42;11.70;;;9.57;;
2313;SDS011;42279;51.388;7.000;2022-11-14T08:13:09;10.00;;;9.00;;
2313;SDS011;42279;51.388;7.000;2022-11-14T08:15:35;10.80;;;9.70;;
2313;SDS011;42279;51.388;7.000;2022-11-14T08:18:01;10.90;;;9.80;;
2313;SDS011;42279;51.388;7.000;2022-11-14T08:20:27;11.30;;;10.13;;
2313;SDS011;42279;51.388;7.000;2022-11-14T08:22:53;10.10;;;8.87;;
2313;SDS011;42279;51.388;7.000;2022-11-14T08:25:19;12.03;;;9.07;;
2313;SDS011;42279;51.388;7.000;2022-11-14T08:27:45;9.40;;;8.60;;
2313;SDS011;42279;51.388;7.000;2022-11-14T08:30:11;10.27;;;9.37;;
2313;SDS011;42279;51.388;7.000;2022-11-14T08:32:37;11.50;;;10.50;;
2313;SDS011;42279;51.388;7.000;2022-11-14T08:35:04;11.50;;;10.50;;
2313;SDS011;42279;51.388;7.000;2022-11-14T08:37:30;12.03;;;10.10;;
2313;SDS011;42279;51.388;7.000;2022-11-14T08:39:56;11.90;;;10.40;;
2313;SDS011;42279;51.388;7.000;2022-11-14T08:42:22;9.67;;;8.87;;
2313;SDS011;42279;51.388;7.000;2022-11-14T08:44:48;10.10;;;9.30;;
2313;SDS011;42279;51.388;7.000;2022-11-14T08:47:14;10.73;;;9.70;;
2313;SDS011;42279;51.388;7.000;2022-11-14T08:49:40;11.27;;;10.20;;
2313;SDS011;42279;51.388;7.000;2022-11-14T08:52:06;10.77;;;9.80;;
2313;SDS011;42279;51.388;7.000;2022-11-14T08:54:32;17.23;;;11.30;;
2313;SDS011;42279;51.388;7.000;2022-11-14T08:56:58;10.37;;;9.33;;
2313;SDS011;42279;51.388;7.000;2022-11-14T08:59:24;10.80;;;9.90;;
2313;SDS011;42279;51.388;7.000;2022-11-14T09:01:50;12.47;;;11.23;;
2313;SDS011;42279;51.388;7.000;2022-11-14T09:04:16;11.63;;;9.87;;
2313;SDS011;42279;51.388;7.000;2022-11-14T09:06:42;12.60;;;11.10;;
2313;SDS011;42279;51.388;7.000;2022-11-14T09:09:10;14.43;;;11.10;;
2313;SDS011;42279;51.388;7.000;2022-11-14T09:11:36;13.43;;;12.07;;
2313;SDS011;42279;51.388;7.000;2022-11-14T09:14:02;11.67;;;10.57;;
2313;SDS011;42279;51.388;7.000;2022-11-14T09:16:28;12.30;;;11.10;;
2313;SDS011;42279;51.388;7.000;2022-11-14T09:18:54;13.13;;;11.83;;
2313;SDS011;42279;51.388;7.000;2022-11-14T09:21:20;14.77;;;11.70;;
2313;SDS011;42279;51.388;7.000;2022-11-14T09:23:46;15.90;;;13.93;;
2313;SDS011;42279;51.388;7.000;2022-11-14T09:26:13;14.83;;;12.90;;
2313;SDS011;42279;51.388;7.000;2022-11-14T09:28:39;24.60;;;13.53;;
2313;SDS011;42279;51.388;7.000;2022-11-14T09:31:06;16.30;;;14.10;;
2313;SDS011;42279;51.388;7.000;2022-11-14T09:33:33;15.63;;;13.50;;
2313;SDS011;42279;51.388;7.000;2022-11-14T09:36:00;18.57;;;14.67;;
2313;SDS011;42279;51.388;7.000;2022-11-14T09:38:26;16.17;;;14.43;;
2313;SDS011;42279;51.388;7.000;2022-11-14T09:43:46;18.63;;;15.60;;
2313;SDS011;42279;51.388;7.000;2022-11-14T09:46:33;19.80;;;14.73;;
2313;SDS011;42279;51.388;7.000;2022-11-14T09:49:02;17.27;;;14.87;;
2313;SDS011;42279;51.388;7.000;2022-11-14T09:51:32;17.93;;;16.00;;
2313;SDS011;42279;51.388;7.000;2022-11-14T09:54:01;17.60;;;13.17;;
2313;SDS011;42279;51.388;7.000;2022-11-14T09:56:30;19.17;;;13.33;;
2313;SDS011;42279;51.388;7.000;2022-11-14T09:58:56;17.67;;;14.63;;
2313;SDS011;42279;51.388;7.000;2022-11-14T10:06:32;16.50;;;11.53;;
2313;SDS011;42279;51.388;7.000;2022-11-14T10:11:33;14.13;;;12.30;;
2313;SDS011;42279;51.388;7.000;2022-11-14T10:39:20;9.80;;;8.80;;
2313;SDS011;42279;51.388;7.000;2022-11-14T10:41:47;9.67;;;8.70;;
2313;SDS011;42279;51.388;7.000;2022-11-14T10:44:17;13.95;;;9.70;;
2313;SDS011;42279;51.388;7.000;2022-11-14T10:46:44;9.30;;;8.37;;
2313;SDS011;42279;51.388;7.000;2022-11-14T10:49:15;10.10;;;9.10;;
2313;SDS011;42279;51.388;7.000;2022-11-14T10:51:46;6.67;;;6.17;;
2313;SDS011;42279;51.388;7.000;2022-11-14T10:54:20;8.77;;;7.67;;
2313;SDS011;42279;51.388;7.000;2022-11-14T10:56:48;8.67;;;7.77;;
2313;SDS011;42279;51.388;7.000;2022-11-14T10:59:14;8.57;;;7.70;;
2313;SDS011;42279;51.388;7.000;2022-11-14T11:01:42;8.30;;;7.70;;
2313;SDS011;42279;51.388;7.000;2022-11-14T11:06:37;7.23;;;6.63;;
2313;SDS011;42279;51.388;7.000;2022-11-14T11:09:07;11.37;;;7.40;;
2313;SDS011;42279;51.388;7.000;2022-11-14T11:11:54;8.37;;;7.20;;
2313;SDS011;42279;51.388;7.000;2022-11-14T11:14:20;9.23;;;7.20;;
2313;SDS011;42279;51.388;7.000;2022-11-14T11:16:46;8.67;;;7.87;;
2313;SDS011;42279;51.388;7.000;2022-11-14T11:19:25;9.40;;;8.47;;
2313;SDS011;42279;51.388;7.000;2022-11-14T11:21:52;7.73;;;7.13;;
2313;SDS011;42279;51.388;7.000;2022-11-14T11:24:34;9.77;;;8.87;;
2313;SDS011;42279;51.388;7.000;2022-11-14T11:29:48;13.90;;;10.73;;
2313;SDS011;42279;51.388;7.000;2022-11-14T11:32:22;12.17;;;9.60;;
2313;SDS011;42279;51.388;7.000;2022-11-14T11:34:50;10.30;;;8.40;;
2313;SDS011;42279;51.388;7.000;2022-11-14T11:37:20;12.23;;;8.70;;
2313;SDS011;42279;51.388;7.000;2022-11-14T11:39:50;8.97;;;8.17;;
2313;SDS011;42279;51.388;7.000;2022-11-14T11:42:19;10.43;;;9.53;;
2313;SDS011;42279;51.388;7.000;2022-11-14T11:44:47;9.83;;;8.83;;
2313;SDS011;42279;51.388;7.000;2022-11-14T11:47:16;9.40;;;8.50;;
2313;SDS011;42279;51.388;7.000;2022-11-14T11:54:45;10.90;;;9.87;;
2313;SDS011;42279;51.388;7.000;2022-11-14T11:57:13;8.97;;;8.17;;
2313;SDS011;42279;51.388;7.000;2022-11-14T11:59:41;10.37;;;9.40;;
2313;SDS011;42279;51.388;7.000;2022-11-14T12:02:29;9.90;;;9.00;;
2313;SDS011;42279;51.388;7.000;2022-11-14T12:04:55;9.70;;;8.70;;
2313;SDS011;42279;51.388;7.000;2022-11-14T12:07:24;9.30;;;8.40;;
2313;SDS011;42279;51.388;7.000;2022-11-14T12:09:54;10.17;;;9.07;;
2313;SDS011;42279;51.388;7.000;2022-11-14T12:17:53;11.10;;;10.00;;
2313;SDS011;42279;51.388;7.000;2022-11-14T12:20:28;10.60;;;9.60;;
2313;SDS011;42279;51.388;7.000;2022-11-14T12:30:37;11.23;;;9.80;;
2313;SDS011;42279;51.388;7.000;2022-11-14T12:33:26;10.93;;;9.70;;
2313;SDS011;42279;51.388;7.000;2022-11-14T12:35:51;10.20;;;9.17;;
2313;SDS011;42279;51.388;7.000;2022-11-14T12:38:18;10.23;;;9.33;;
2313;SDS011;42279;51.388;7.000;2022-11-14T12:40:49;11.27;;;10.23;;
2313;SDS011;42279;51.388;7.000;2022-11-14T12:43:35;9.27;;;8.47;;
2313;SDS011;42279;51.388;7.000;2022-11-14T12:46:05;10.17;;;9.10;;
2313;SDS011;42279;51.388;7.000;2022-11-14T12:48:39;11.20;;;8.90;;
2313;SDS011;42279;51.388;7.000;2022-11-14T12:53:52;10.80;;;9.23;;
2313;SDS011;42279;51.388;7.000;2022-11-14T13:12:26;8.77;;;7.97;;
2313;SDS011;42279;51.388;7.000;2022-11-14T13:18:12;8.87;;;7.97;;
2313;SDS011;42279;51.388;7.000;2022-11-14T13:21:21;8.47;;;7.73;;
2313;SDS011;42279;51.388;7.000;2022-11-14T13:24:02;8.53;;;7.53;;
2313;SDS011;42279;51.388;7.000;2022-11-14T13:28:55;9.53;;;7.90;;
2313;SDS011;42279;51.388;7.000;2022-11-14T13:31:30;15.10;;;8.50;;
2313;SDS011;42279;51.388;7.000;2022-11-14T13:50:29;11.20;;;10.07;;
2313;SDS011;42279;51.388;7.000;2022-11-14T13:52:55;9.57;;;8.63;;
2313;SDS011;42279;51.388;7.000;2022-11-14T13:55:22;14.00;;;11.63;;
2313;SDS011;42279;51.388;7.000;2022-11-14T13:58:02;14.27;;;10.60;;
2313;SDS011;42279;51.388;7.000;2022-11-14T14:03:46;12.00;;;10.83;;
2313;SDS011;42279;51.388;7.000;2022-11-14T14:11:25;13.13;;;10.83;;
2313;SDS011;42279;51.388;7.000;2022-11-14T14:16:48;15.20;;;9.97;;
2313;SDS011;42279;51.388;7.000;2022-11-14T14:19:20;14.30;;;11.47;;
2313;SDS011;42279;51.388;7.000;2022-11-14T14:21:56;12.93;;;11.73;;
2313;SDS011;42279;51.388;7.000;2022-11-14T14:27:00;13.63;;;11.10;;
2313;SDS011;42279;51.388;7.000;2022-11-14T14:29:40;16.20;;;11.93;;
2313;SDS011;42279;51.388;7.000;2022-11-14T14:32:13;14.23;;;11.80;;
2313;SDS011;42279;51.388;7.000;2022-11-14T14:34:42;15.60;;;12.10;;
2313;SDS011;42279;51.388;7.000;2022-11-14T14:37:15;11.50;;;10.30;;
2313;SDS011;42279;51.388;7.000;2022-11-14T14:39:54;13.03;;;11.30;;
2313;SDS011;42279;51.388;7.000;2022-11-14T14:42:20;14.13;;;11.63;;
2313;SDS011;42279;51.388;7.000;2022-11-14T14:44:46;11.53;;;10.30;;
2313;SDS011;42279;51.388;7.000;2022-11-14T14:47:29;13.63;;;11.50;;
2313;SDS011;42279;51.388;7.000;2022-11-14T14:49:58;12.93;;;10.90;;
2313;SDS011;42279;51.388;7.000;2022-11-14T14:54:55;12.63;;;11.43;;
2313;SDS011;42279;51.388;7.000;2022-11-14T14:57:21;14.40;;;11.43;;
2313;SDS011;42279;51.388;7.000;2022-11-14T15:00:03;17.20;;;11.40;;
2313;SDS011;42279;51.388;7.000;2022-11-14T15:02:29;19.07;;;12.40;;
2313;SDS011;42279;51.388;7.000;2022-11-14T15:04:56;17.10;;;11.90;;
2313;SDS011;42279;51.388;7.000;2022-11-14T15:07:24;13.40;;;11.13;;
2313;SDS011;42279;51.388;7.000;2022-11-14T15:09:57;13.30;;;11.90;;
2313;SDS011;42279;51.388;7.000;2022-11-14T15:12:24;13.40;;;11.57;;
2313;SDS011;42279;51.388;7.000;2022-11-14T15:14:51;15.80;;;12.93;;
2313;SDS011;42279;51.388;7.000;2022-11-14T15:17:18;17.17;;;12.90;;
2313;SDS011;42279;51.388;7.000;2022-11-14T15:19:44;13.43;;;12.03;;
2313;SDS011;42279;51.388;7.000;2022-11-14T15:24:42;14.93;;;12.40;;
2313;SDS011;42279;51.388;7.000;2022-11-14T15:29:44;13.10;;;11.70;;
2313;SDS011;42279;51.388;7.000;2022-11-14T15:32:14;14.10;;;12.60;;
2313;SDS011;42279;51.388;7.000;2022-11-14T15:34:42;14.57;;;12.67;;
2313;SDS011;42279;51.388;7.000;2022-11-14T15:39:43;16.07;;;11.70;;
2313;SDS011;42279;51.388;7.000;2022-11-14T15:42:25;12.00;;;10.40;;
2313;SDS011;42279;51.388;7.000;2022-11-14T15:44:52;13.63;;;12.23;;
2313;SDS011;42279;51.388;7.000;2022-11-14T15:47:19;15.43;;;12.53;;
2313;SDS011;42279;51.388;7.000;2022-11-14T15:50:05;13.80;;;12.27;;
2313;SDS011;42279;51.388;7.000;2022-11-14T15:52:35;16.70;;;12.03;;
2313;SDS011;42279;51.388;7.000;2022-11-14T15:55:03;15.90;;;12.17;;
2313;SDS011;42279;51.388;7.000;2022-11-14T15:57:30;16.30;;;12.60;;
2313;SDS011;42279;51.388;7.000;2022-11-14T15:59:56;21.43;;;14.07;;
2313;SDS011;42279;51.388;7.000;2022-11-14T16:02:27;14.40;;;11.97;;
2313;SDS011;42279;51.388;7.000;2022-11-14T16:04:54;16.80;;;13.13;;
2313;SDS011;42279;51.388;7.000;2022-11-14T16:07:20;17.07;;;13.43;;
2313;SDS011;42279;51.388;7.000;2022-11-14T16:09:46;16.43;;;12.83;;
2313;SDS011;42279;51.388;7.000;2022-11-14T16:12:13;19.23;;;14.17;;
2313;SDS011;42279;51.388;7.000;2022-11-14T16:14:39;13.53;;;12.13;;
2313;SDS011;42279;51.388;7.000;2022-11-14T16:17:09;17.70;;;13.40;;
2313;SDS011;42279;51.388;7.000;2022-11-14T16:19:39;15.80;;;13.40;;
2313;SDS011;42279;51.388;7.000;2022-11-14T16:25:15;21.07;;;12.30;;
2313;SDS011;42279;51.388;7.000;2022-11-14T16:27:42;15.20;;;13.17;;
2313;SDS011;42279;51.388;7.000;2022-11-14T16:30:10;18.77;;;13.10;;
2313;SDS011;42279;51.388;7.000;2022-11-14T16:32:36;15.07;;;13.37;;
2313;SDS011;42279;51.388;7.000;2022-11-14T16:35:02;20.40;;;13.60;;
2313;SDS011;42279;51.388;7.000;2022-11-14T16:37:28;18.20;;;13.70;;
2313;SDS011;42279;51.388;7.000;2022-11-14T16:39:54;13.30;;;11.90;;
2313;SDS011;42279;51.388;7.000;2022-11-14T16:42:23;14.40;;;12.90;;
2313;SDS011;42279;51.388;7.000;2022-11-14T16:44:49;15.97;;;13.10;;
2313;SDS011;42279;51.388;7.000;2022-11-14T16:47:15;21.03;;;13.83;;
2313;SDS011;42279;51.388;7.000;2022-11-14T16:49:43;15.30;;;12.87;;
2313;SDS011;42279;51.388;7.000;2022-11-14T16:52:09;15.97;;;11.30;;
2313;SDS011;42279;51.388;7.000;2022-11-14T16:54:36;14.63;;;12.47;;
2313;SDS011;42279;51.388;7.000;2022-11-14T16:57:05;14.33;;;11.70;;